createdAt,value
2022-10-20T00:01:30.701Z,63.51
2022-10-20T00:03:57.046Z,63.56
2022-10-20T00:06:23.357Z,63.87
2022-10-20T00:08:49.777Z,63.95
2022-10-20T00:11:16.055Z,63.96
2022-10-20T00:13:42.394Z,64.06
2022-10-20T00:16:08.717Z,64.21
2022-10-20T00:18:35.068Z,64.47
2022-10-20T00:21:01.401Z,64.51
2022-10-20T00:23:27.744Z,64.64
2022-10-20T00:25:54.080Z,64.76
2022-10-20T00:28:20.405Z,64.83
2022-10-20T00:30:46.765Z,65.00
2022-10-20T00:33:13.106Z,64.91
2022-10-20T00:35:39.420Z,64.88
2022-10-20T00:38:05.844Z,65.06
2022-10-20T00:40:32.114Z,65.10
2022-10-20T00:42:58.436Z,64.69
2022-10-20T00:45:24.790Z,64.66
2022-10-20T00:47:51.134Z,64.79
2022-10-20T00:50:17.450Z,64.87
2022-10-20T00:52:43.775Z,64.57
2022-10-20T00:55:10.115Z,64.34
2022-10-20T00:57:36.660Z,64.29
2022-10-20T01:00:02.781Z,64.16
2022-10-20T01:02:29.098Z,63.90
2022-10-20T01:04:55.416Z,64.05
2022-10-20T01:07:21.776Z,63.90
2022-10-20T01:09:48.115Z,64.06
2022-10-20T01:12:14.458Z,63.53
2022-10-20T01:14:40.813Z,63.41
2022-10-20T01:17:07.147Z,63.51
2022-10-20T01:19:33.492Z,63.59
2022-10-20T01:21:59.861Z,63.46
2022-10-20T01:24:26.199Z,63.53
2022-10-20T01:26:52.540Z,63.46
2022-10-20T01:29:18.873Z,63.51
2022-10-20T01:31:45.196Z,63.38
2022-10-20T01:34:11.516Z,63.54
2022-10-20T01:36:37.872Z,63.46
2022-10-20T01:39:04.206Z,63.19
2022-10-20T01:41:30.528Z,63.16
2022-10-20T01:43:56.890Z,63.21
2022-10-20T01:46:23.210Z,63.11
2022-10-20T01:48:49.550Z,63.20
2022-10-20T01:51:15.878Z,63.08
2022-10-20T01:53:42.218Z,63.09
2022-10-20T01:56:08.575Z,63.00
2022-10-20T01:58:34.910Z,63.27
2022-10-20T02:01:01.260Z,63.26
2022-10-20T02:03:27.604Z,63.30
2022-10-20T02:05:53.929Z,63.25
2022-10-20T02:08:20.267Z,63.24
2022-10-20T02:10:46.587Z,63.10
2022-10-20T02:13:12.901Z,63.16
2022-10-20T02:15:39.225Z,63.45
2022-10-20T02:18:05.547Z,63.53
2022-10-20T02:20:31.872Z,63.80
2022-10-20T02:22:58.191Z,63.72
2022-10-20T02:25:24.519Z,63.81
2022-10-20T02:27:50.935Z,63.73
2022-10-20T02:30:17.221Z,63.67
2022-10-20T02:32:43.536Z,63.50
2022-10-20T02:35:09.919Z,63.68
2022-10-20T02:37:36.452Z,63.67
2022-10-20T02:40:02.574Z,63.52
2022-10-20T02:42:28.891Z,63.82
2022-10-20T02:44:55.256Z,64.02
2022-10-20T02:47:21.581Z,64.14
2022-10-20T02:49:47.906Z,63.98
2022-10-20T02:52:14.288Z,64.34
2022-10-20T02:54:40.598Z,64.09
2022-10-20T02:57:06.939Z,64.16
2022-10-20T02:59:33.284Z,64.20
2022-10-20T03:01:59.673Z,64.27
2022-10-20T03:06:52.261Z,64.82
2022-10-20T03:09:18.583Z,64.36
2022-10-20T03:11:44.897Z,64.96
2022-10-20T03:14:11.261Z,65.40
2022-10-20T03:16:37.592Z,65.40
2022-10-20T03:19:07.150Z,65.35
2022-10-20T03:21:30.298Z,65.21
2022-10-20T03:23:56.617Z,65.29
2022-10-20T03:26:22.936Z,65.11
2022-10-20T03:28:49.287Z,64.99
2022-10-20T03:31:15.651Z,64.98
2022-10-20T03:33:41.995Z,65.23
2022-10-20T03:36:08.307Z,65.33
2022-10-20T03:38:34.655Z,65.53
2022-10-20T03:43:27.334Z,65.66
2022-10-20T03:45:53.670Z,65.67
2022-10-20T03:48:20.032Z,66.01
2022-10-20T03:50:46.342Z,65.88
2022-10-20T03:53:12.669Z,65.68
2022-10-20T03:55:39.025Z,65.64
2022-10-20T03:58:05.369Z,65.82
2022-10-20T04:00:31.708Z,65.75
2022-10-20T04:02:58.057Z,65.94
2022-10-20T04:05:24.392Z,65.86
2022-10-20T04:07:50.733Z,66.32
2022-10-20T04:10:17.064Z,66.54
2022-10-20T04:12:43.417Z,66.53
2022-10-20T04:15:09.749Z,66.74
2022-10-20T04:17:36.143Z,66.79
2022-10-20T04:20:02.417Z,66.64
2022-10-20T04:22:28.757Z,66.98
2022-10-20T04:24:55.111Z,66.89
2022-10-20T04:27:21.666Z,75.32
2022-10-20T04:29:47.979Z,79.24
2022-10-20T04:32:14.313Z,80.12
2022-10-20T04:34:40.663Z,76.84
2022-10-20T04:37:06.980Z,73.84
2022-10-20T04:39:33.334Z,72.46
2022-10-20T04:41:59.671Z,78.57
2022-10-20T04:44:25.992Z,81.30
2022-10-20T04:46:52.336Z,82.55
2022-10-20T04:49:18.654Z,83.09
2022-10-20T04:51:44.995Z,83.07
2022-10-20T04:54:11.335Z,82.82
2022-10-20T04:56:37.652Z,82.80
2022-10-20T04:59:04.010Z,82.56
2022-10-20T05:01:30.358Z,79.82
2022-10-20T05:03:56.673Z,74.43
2022-10-20T05:06:22.990Z,72.11
2022-10-20T05:08:49.397Z,70.70
2022-10-20T05:11:15.654Z,70.12
2022-10-20T05:13:41.975Z,69.39
2022-10-20T05:16:08.294Z,69.00
2022-10-20T05:18:34.662Z,68.42
2022-10-20T05:21:09.667Z,68.17
2022-10-20T05:23:27.339Z,67.55
2022-10-20T05:25:53.655Z,67.09
2022-10-20T05:28:20.012Z,66.79
2022-10-20T05:30:46.489Z,66.51
2022-10-20T05:33:12.840Z,66.02
2022-10-20T05:35:39.158Z,65.58
2022-10-20T05:38:05.488Z,65.11
2022-10-20T05:40:31.827Z,64.77
2022-10-20T05:42:58.186Z,64.27
2022-10-20T05:45:24.528Z,64.54
2022-10-20T05:47:50.883Z,64.42
2022-10-20T05:50:17.409Z,64.03
2022-10-20T05:52:43.765Z,63.61
2022-10-20T05:55:10.086Z,63.10
2022-10-20T05:57:36.440Z,62.45
2022-10-20T06:00:02.771Z,61.81
2022-10-20T06:02:29.091Z,61.18
2022-10-20T06:04:55.420Z,60.69
2022-10-20T06:07:21.771Z,60.40
2022-10-20T06:09:48.110Z,59.73
2022-10-20T06:12:14.433Z,59.14
2022-10-20T06:14:40.768Z,59.15
2022-10-20T06:17:07.096Z,58.56
2022-10-20T06:19:33.419Z,58.38
2022-10-20T06:22:03.865Z,57.67
2022-10-20T06:24:26.220Z,57.63
2022-10-20T06:26:52.569Z,57.12
2022-10-20T06:29:18.896Z,56.28
2022-10-20T06:31:45.217Z,55.84
2022-10-20T06:34:11.560Z,55.53
2022-10-20T06:36:37.924Z,55.04
2022-10-20T06:39:04.260Z,54.65
2022-10-20T06:41:30.582Z,54.21
2022-10-20T06:43:56.949Z,53.93
2022-10-20T06:46:23.271Z,53.45
2022-10-20T06:48:49.612Z,53.18
2022-10-20T06:51:15.959Z,52.67
2022-10-20T06:53:45.718Z,52.20
2022-10-20T06:56:08.652Z,52.20
2022-10-20T06:58:34.987Z,51.37
2022-10-20T07:01:02.596Z,51.52
2022-10-20T07:03:27.683Z,51.29
2022-10-20T07:05:54.003Z,50.97
2022-10-20T07:08:20.321Z,50.90
2022-10-20T07:10:46.666Z,50.76
2022-10-20T07:13:13.005Z,50.63
2022-10-20T07:15:39.328Z,50.58
2022-10-20T07:18:05.687Z,50.54
2022-10-20T07:20:32.005Z,50.20
2022-10-20T07:22:58.357Z,50.26
2022-10-20T07:25:24.749Z,50.48
2022-10-20T07:27:51.082Z,50.84
2022-10-20T07:30:17.416Z,50.83
2022-10-20T07:32:43.778Z,50.79
2022-10-20T07:35:10.124Z,50.48
2022-10-20T07:37:36.817Z,50.33
2022-10-20T07:40:02.766Z,50.21
2022-10-20T07:42:29.082Z,49.73
2022-10-20T07:44:55.422Z,49.05
2022-10-20T07:47:21.806Z,48.67
2022-10-20T07:49:48.128Z,48.03
2022-10-20T07:52:14.500Z,47.85
2022-10-20T07:54:40.823Z,47.08
2022-10-20T07:57:07.191Z,46.62
2022-10-20T07:59:33.539Z,46.19
2022-10-20T08:02:00.368Z,45.80
2022-10-20T08:04:26.211Z,45.75
2022-10-20T08:06:52.551Z,45.18
2022-10-20T08:09:18.897Z,45.12
2022-10-20T08:11:45.216Z,44.70
2022-10-20T08:14:11.563Z,44.54
2022-10-20T08:16:43.964Z,44.35
2022-10-20T08:21:53.104Z,43.21
2022-10-20T08:24:19.438Z,42.87
2022-10-20T08:26:45.776Z,42.62
2022-10-20T08:29:12.100Z,42.01
2022-10-20T08:31:38.476Z,41.86
2022-10-20T08:34:04.800Z,41.53
2022-10-20T08:36:31.139Z,41.00
2022-10-20T08:39:00.680Z,40.49
2022-10-20T08:41:23.807Z,39.98
2022-10-20T08:43:50.172Z,39.64
2022-10-20T08:46:16.514Z,39.11
2022-10-20T08:48:42.826Z,38.76
2022-10-20T08:51:09.163Z,38.59
2022-10-20T08:53:35.551Z,38.52
2022-10-20T08:56:01.891Z,37.71
2022-10-20T08:58:28.232Z,37.29
2022-10-20T09:00:54.608Z,36.78
2022-10-20T09:03:20.949Z,36.40
2022-10-20T09:05:47.270Z,36.33
2022-10-20T09:08:13.599Z,36.20
2022-10-20T09:10:39.921Z,35.93
2022-10-20T09:13:06.268Z,35.67
2022-10-20T09:15:32.585Z,35.19
2022-10-20T09:17:58.911Z,34.91
2022-10-20T09:20:25.227Z,34.61
2022-10-20T09:22:51.577Z,34.43
2022-10-20T09:25:17.920Z,34.00
2022-10-20T09:27:44.283Z,33.85
2022-10-20T09:30:10.599Z,33.48
2022-10-20T09:32:52.396Z,33.43
2022-10-20T09:35:03.303Z,33.43
2022-10-20T09:37:29.644Z,33.26
2022-10-20T09:39:56.112Z,32.81
2022-10-20T09:42:22.319Z,32.49
2022-10-20T09:44:48.640Z,32.26
2022-10-20T09:47:14.984Z,32.25
2022-10-20T09:49:41.353Z,32.03
2022-10-20T09:52:07.678Z,31.93
2022-10-20T09:54:34.021Z,31.78
2022-10-20T09:57:00.345Z,31.25
2022-10-20T09:59:26.679Z,31.61
2022-10-20T10:01:53.007Z,31.32
2022-10-20T10:04:19.367Z,30.50
2022-10-20T10:06:45.686Z,30.52
2022-10-20T10:09:12.150Z,30.42
2022-10-20T10:11:38.337Z,30.15
2022-10-20T10:14:04.675Z,30.22
2022-10-20T10:16:31.021Z,30.14
2022-10-20T10:18:57.341Z,30.22
2022-10-20T10:21:23.686Z,30.25
2022-10-20T10:23:49.998Z,29.91
2022-10-20T10:26:16.373Z,29.74
2022-10-20T10:28:42.710Z,29.52
2022-10-20T10:31:09.029Z,29.36
2022-10-20T10:33:35.355Z,29.35
2022-10-20T10:36:01.708Z,29.25
2022-10-20T10:38:28.029Z,29.23
2022-10-20T10:40:54.380Z,29.18
2022-10-20T10:43:20.718Z,28.82
2022-10-20T10:45:47.067Z,28.66
2022-10-20T10:48:13.406Z,28.57
2022-10-20T10:50:39.732Z,28.73
2022-10-20T10:55:48.810Z,29.14
2022-10-20T10:58:07.792Z,29.22
2022-10-20T11:00:34.129Z,29.06
2022-10-20T11:03:00.448Z,28.88
2022-10-20T11:05:26.766Z,28.64
2022-10-20T11:07:53.111Z,28.63
2022-10-20T11:10:19.484Z,28.64
2022-10-20T11:12:45.828Z,28.76
2022-10-20T11:15:12.143Z,28.79
2022-10-20T11:17:38.694Z,28.77
2022-10-20T11:20:04.832Z,28.72
2022-10-20T11:22:31.155Z,28.69
2022-10-20T11:24:57.529Z,28.53
2022-10-20T11:27:23.881Z,28.44
2022-10-20T11:29:50.188Z,28.44
2022-10-20T11:32:16.575Z,28.55
2022-10-20T11:34:42.884Z,28.53
2022-10-20T11:37:09.207Z,28.55
2022-10-20T11:39:35.561Z,27.64
2022-10-20T11:42:01.908Z,28.20
2022-10-20T11:44:28.228Z,28.10
2022-10-20T11:46:54.610Z,28.29
2022-10-20T11:49:20.945Z,28.51
2022-10-20T11:51:47.265Z,28.61
2022-10-20T11:54:13.643Z,28.57
2022-10-20T11:56:39.987Z,28.80
2022-10-20T11:59:06.304Z,28.67
2022-10-20T12:01:32.706Z,28.72
2022-10-20T12:03:58.977Z,28.42
2022-10-20T12:06:25.300Z,28.65
2022-10-20T12:08:51.667Z,28.85
2022-10-20T12:11:17.990Z,28.74
2022-10-20T12:13:44.308Z,28.54
2022-10-20T12:16:10.651Z,28.24
2022-10-20T12:18:36.969Z,28.41
2022-10-20T12:21:03.315Z,28.63
2022-10-20T12:23:29.654Z,28.73
2022-10-20T12:25:56.018Z,28.88
2022-10-20T12:28:22.393Z,28.86
2022-10-20T12:30:48.740Z,28.49
2022-10-20T12:33:15.052Z,28.68
2022-10-20T12:35:41.378Z,28.65
2022-10-20T12:38:07.720Z,28.50
2022-10-20T12:40:34.077Z,28.54
2022-10-20T12:43:00.395Z,28.89
2022-10-20T12:45:26.741Z,28.97
2022-10-20T12:47:53.064Z,29.25
2022-10-20T12:50:19.398Z,28.85
2022-10-20T12:52:45.718Z,28.90
2022-10-20T12:55:12.062Z,29.11
2022-10-20T12:57:38.685Z,29.27
2022-10-20T13:00:04.791Z,28.96
2022-10-20T13:02:31.129Z,28.92
2022-10-20T13:04:57.475Z,29.00
2022-10-20T13:07:23.831Z,29.09
2022-10-20T13:09:50.187Z,29.30
2022-10-20T13:12:16.507Z,29.43
2022-10-20T13:14:42.909Z,29.33
2022-10-20T13:17:09.305Z,29.26
2022-10-20T13:19:35.618Z,29.75
2022-10-20T13:22:01.956Z,29.86
2022-10-20T13:24:28.319Z,30.00
2022-10-20T13:26:54.657Z,30.01
2022-10-20T13:29:20.973Z,30.22
2022-10-20T13:31:47.354Z,30.39
2022-10-20T13:34:13.702Z,30.56
2022-10-20T13:36:40.043Z,30.67
2022-10-20T13:39:06.385Z,31.33
2022-10-20T13:41:32.706Z,31.17
2022-10-20T13:44:00.825Z,31.55
2022-10-20T13:46:25.405Z,31.87
2022-10-20T13:48:51.726Z,31.84
2022-10-20T13:51:20.498Z,32.13
2022-10-20T13:53:44.396Z,32.37
2022-10-20T13:56:10.737Z,32.83
2022-10-20T13:58:37.098Z,33.34
2022-10-20T14:01:03.497Z,33.12
2022-10-20T14:03:29.755Z,33.15
2022-10-20T14:05:56.094Z,33.23
2022-10-20T14:08:23.547Z,33.27
2022-10-20T14:10:48.791Z,33.47
2022-10-20T14:13:15.114Z,33.90
2022-10-20T14:15:41.452Z,34.06
2022-10-20T14:18:07.776Z,33.98
2022-10-20T14:20:34.117Z,34.01
2022-10-20T14:23:00.439Z,34.17
2022-10-20T14:25:26.779Z,34.45
2022-10-20T14:27:53.121Z,34.76
2022-10-20T14:30:19.489Z,34.64
2022-10-20T14:32:45.813Z,34.77
2022-10-20T14:35:12.136Z,34.60
2022-10-20T14:37:38.856Z,34.90
2022-10-20T14:40:04.888Z,35.18
2022-10-20T14:42:31.191Z,35.39
2022-10-20T14:44:57.516Z,35.78
2022-10-20T14:47:23.858Z,35.54
2022-10-20T14:49:52.299Z,35.84
2022-10-20T14:52:20.373Z,36.00
2022-10-20T14:54:42.919Z,36.07
2022-10-20T14:57:09.261Z,36.26
2022-10-20T14:59:35.606Z,36.30
2022-10-20T15:02:01.942Z,36.67
2022-10-20T15:04:30.063Z,36.75
2022-10-20T15:06:54.699Z,36.90
2022-10-20T15:09:21.059Z,37.16
2022-10-20T15:11:47.349Z,37.11
2022-10-20T15:14:13.671Z,37.38
2022-10-20T15:16:40.016Z,37.67
2022-10-20T15:19:06.339Z,37.60
2022-10-20T15:21:32.683Z,37.86
2022-10-20T15:23:59.041Z,37.71
2022-10-20T15:26:25.379Z,38.08
2022-10-20T15:28:51.702Z,37.89
2022-10-20T15:31:18.052Z,38.27
2022-10-20T15:33:44.399Z,38.28
2022-10-20T15:36:10.711Z,38.61
2022-10-20T15:38:37.038Z,38.54
2022-10-20T15:41:03.369Z,38.69
2022-10-20T15:43:29.705Z,38.90
2022-10-20T15:45:56.061Z,38.95
2022-10-20T15:48:22.382Z,39.06
2022-10-20T15:50:48.744Z,39.23
2022-10-20T15:53:15.114Z,39.12
2022-10-20T15:55:41.449Z,39.20
2022-10-20T15:58:07.770Z,39.30
2022-10-20T16:00:34.151Z,39.60
2022-10-20T16:03:00.464Z,39.46
2022-10-20T16:05:26.783Z,39.29
2022-10-20T16:07:53.115Z,39.67
2022-10-20T16:10:19.449Z,39.43
2022-10-20T16:12:45.829Z,39.81
2022-10-20T16:15:12.173Z,39.44
2022-10-20T16:17:38.555Z,39.27
2022-10-20T16:20:04.831Z,39.67
2022-10-20T16:22:31.172Z,39.66
2022-10-20T16:24:57.537Z,39.91
2022-10-20T16:27:23.866Z,40.02
2022-10-20T16:29:50.186Z,39.95
2022-10-20T16:32:17.702Z,40.12
2022-10-20T16:34:44.021Z,40.31
2022-10-20T16:37:10.369Z,40.15
2022-10-20T16:39:36.715Z,40.51
2022-10-20T16:42:03.072Z,40.55
2022-10-20T16:44:29.415Z,40.59
2022-10-20T16:46:55.740Z,40.77
2022-10-20T16:49:22.119Z,41.07
2022-10-20T16:51:48.463Z,41.09
2022-10-20T16:54:14.791Z,40.92
2022-10-20T16:56:41.154Z,41.29
2022-10-20T16:59:07.439Z,41.64
2022-10-20T17:01:33.819Z,41.61
2022-10-20T17:04:00.169Z,41.79
2022-10-20T17:06:26.489Z,42.35
2022-10-20T17:08:52.889Z,41.96
2022-10-20T17:11:19.208Z,41.91
2022-10-20T17:13:45.532Z,42.11
2022-10-20T17:16:11.858Z,42.36
2022-10-20T17:18:38.212Z,42.54
2022-10-20T17:21:04.535Z,43.11
2022-10-20T17:23:30.902Z,43.29
2022-10-20T17:25:57.313Z,43.21
2022-10-20T17:28:23.629Z,43.35
2022-10-20T17:30:49.950Z,43.44
2022-10-20T17:33:16.285Z,43.59
2022-10-20T17:35:42.616Z,43.78
2022-10-20T17:38:08.939Z,44.13
2022-10-20T17:40:35.299Z,44.23
2022-10-20T17:43:01.705Z,44.24
2022-10-20T17:45:28.043Z,44.45
2022-10-20T17:47:54.382Z,44.55
2022-10-20T17:50:20.728Z,44.79
2022-10-20T17:52:47.091Z,45.07
2022-10-20T17:55:13.435Z,45.12
2022-10-20T17:57:39.795Z,45.25
2022-10-20T18:00:11.084Z,45.42
2022-10-20T18:02:32.498Z,45.48
2022-10-20T18:04:58.824Z,45.61
2022-10-20T18:07:25.199Z,45.84
2022-10-20T18:09:51.555Z,45.96
2022-10-20T18:12:17.897Z,46.11
2022-10-20T18:14:44.243Z,46.26
2022-10-20T18:17:10.606Z,46.83
2022-10-20T18:19:37.367Z,46.90
2022-10-20T18:22:03.687Z,46.96
2022-10-20T18:24:30.025Z,46.98
2022-10-20T18:26:56.356Z,47.17
2022-10-20T18:29:22.705Z,47.55
2022-10-20T18:31:49.025Z,48.01
2022-10-20T18:34:15.372Z,47.98
2022-10-20T18:36:45.009Z,47.48
2022-10-20T18:39:08.054Z,47.66
2022-10-20T18:41:34.417Z,47.71
2022-10-20T18:44:00.762Z,48.10
2022-10-20T18:46:27.084Z,48.17
2022-10-20T18:48:53.451Z,48.17
2022-10-20T18:51:19.798Z,48.22
2022-10-20T18:53:46.192Z,48.60
2022-10-20T18:56:12.488Z,48.35
2022-10-20T18:58:38.841Z,48.33
2022-10-20T19:01:05.204Z,48.56
2022-10-20T19:03:31.537Z,48.87
2022-10-20T19:05:57.854Z,48.93
2022-10-20T19:08:24.185Z,48.90
2022-10-20T19:10:50.509Z,49.28
2022-10-20T19:13:16.885Z,49.26
2022-10-20T19:15:43.223Z,49.11
2022-10-20T19:18:09.548Z,49.11
2022-10-20T19:20:35.889Z,49.13
2022-10-20T19:23:02.209Z,49.22
2022-10-20T19:25:28.531Z,49.62
2022-10-20T19:27:54.892Z,49.66
2022-10-20T19:30:21.218Z,49.78
2022-10-20T19:32:47.845Z,49.91
2022-10-20T19:35:13.900Z,50.07
2022-10-20T19:37:40.224Z,49.88
2022-10-20T19:40:06.555Z,49.87
2022-10-20T19:42:32.964Z,49.86
2022-10-20T19:44:59.280Z,49.67
2022-10-20T19:47:25.607Z,49.82
2022-10-20T19:49:51.952Z,50.18
2022-10-20T19:52:18.280Z,50.06
2022-10-20T19:54:44.666Z,50.27
2022-10-20T19:57:10.981Z,50.32
2022-10-20T19:59:37.322Z,50.60
2022-10-20T20:02:03.705Z,50.72
2022-10-20T20:04:30.044Z,50.78
2022-10-20T20:07:01.704Z,51.02
2022-10-20T20:09:22.726Z,51.01
2022-10-20T20:11:49.147Z,52.96
2022-10-20T20:14:15.453Z,52.18
2022-10-20T20:16:41.946Z,51.75
2022-10-20T20:19:08.274Z,51.70
2022-10-20T20:21:34.623Z,51.76
2022-10-20T20:24:01.440Z,52.36
2022-10-20T20:26:27.282Z,52.39
2022-10-20T20:28:53.625Z,52.22
2022-10-20T20:31:20.000Z,52.20
2022-10-20T20:33:46.347Z,52.35
2022-10-20T20:36:12.644Z,52.38
2022-10-20T20:38:39.021Z,52.53
2022-10-20T20:41:05.394Z,52.46
2022-10-20T20:43:31.755Z,52.62
2022-10-20T20:45:58.026Z,52.74
2022-10-20T20:48:24.344Z,52.87
2022-10-20T20:50:50.704Z,53.01
2022-10-20T20:53:17.054Z,52.94
2022-10-20T20:55:43.418Z,53.07
2022-10-20T20:58:09.745Z,53.17
2022-10-20T21:00:36.070Z,53.53
2022-10-20T21:03:02.399Z,53.72
2022-10-20T21:05:28.728Z,53.79
2022-10-20T21:07:55.087Z,53.89
2022-10-20T21:10:21.409Z,54.04
2022-10-20T21:12:47.751Z,54.08
2022-10-20T21:15:14.099Z,54.13
2022-10-20T21:17:40.415Z,54.33
2022-10-20T21:20:06.762Z,54.43
2022-10-20T21:22:33.088Z,54.57
2022-10-20T21:24:59.461Z,54.66
2022-10-20T21:27:25.785Z,54.60
2022-10-20T21:29:52.107Z,54.57
2022-10-20T21:32:18.455Z,54.60
2022-10-20T21:34:44.825Z,54.97
2022-10-20T21:37:11.159Z,54.97
2022-10-20T21:39:37.509Z,54.78
2022-10-20T21:42:03.805Z,54.79
2022-10-20T21:44:30.125Z,55.04
2022-10-20T21:46:56.453Z,55.36
2022-10-20T21:49:22.797Z,55.10
2022-10-20T21:51:49.141Z,55.04
2022-10-20T21:54:15.532Z,55.07
2022-10-20T21:56:41.815Z,55.25
2022-10-20T21:59:08.164Z,55.68
2022-10-20T22:01:34.611Z,55.61
2022-10-20T22:04:00.918Z,55.73
2022-10-20T22:06:27.257Z,55.79
2022-10-20T22:08:53.651Z,55.46
2022-10-20T22:11:19.936Z,55.65
2022-10-20T22:13:46.277Z,55.94
2022-10-20T22:16:12.602Z,55.78
2022-10-20T22:18:38.951Z,55.82
2022-10-20T22:21:07.608Z,55.90
2022-10-20T22:23:31.611Z,55.88
2022-10-20T22:25:57.936Z,55.85
2022-10-20T22:28:24.259Z,56.00
2022-10-20T22:30:50.668Z,55.73
2022-10-20T22:33:16.964Z,56.11
2022-10-20T22:35:43.305Z,56.15
2022-10-20T22:38:09.627Z,55.56
2022-10-20T22:40:35.949Z,55.64
2022-10-20T22:43:02.357Z,55.54
2022-10-20T22:45:28.677Z,55.60
2022-10-20T22:47:55.015Z,55.58
2022-10-20T22:50:21.373Z,55.59
2022-10-20T22:52:47.698Z,55.73
2022-10-20T22:55:14.014Z,55.83
2022-10-20T22:57:40.331Z,55.81
2022-10-20T23:00:06.737Z,56.10
2022-10-20T23:02:33.003Z,56.14
2022-10-20T23:04:59.352Z,55.96
2022-10-20T23:07:25.661Z,56.12
2022-10-20T23:09:51.975Z,56.08
2022-10-20T23:12:18.314Z,55.99
2022-10-20T23:14:44.624Z,56.15
2022-10-20T23:17:10.944Z,56.33
2022-10-20T23:19:37.293Z,56.40
2022-10-20T23:22:03.656Z,56.58
2022-10-20T23:24:29.990Z,56.53
2022-10-20T23:26:56.371Z,56.67
2022-10-20T23:29:22.700Z,56.92
2022-10-20T23:31:49.048Z,56.90
2022-10-20T23:34:15.357Z,57.07
2022-10-20T23:36:41.690Z,57.07
2022-10-20T23:39:08.008Z,56.76
2022-10-20T23:41:34.340Z,56.73
2022-10-20T23:44:00.733Z,56.69
2022-10-20T23:46:27.055Z,56.85
2022-10-20T23:48:53.370Z,56.82
2022-10-20T23:51:19.726Z,56.97
2022-10-20T23:53:46.042Z,57.02
2022-10-20T23:56:12.381Z,57.18
2022-10-20T23:58:38.723Z,57.27
